Share

Curtin Springs, Northern Territory

Ayers Rock (Connellan) (YAYE) Elev 1627 ft | 25.19 °S, 130.98 °E | Change Station

Current weather conditions updated 51 minutes ago

Clear
Clear
81 °F
Feels Like 81 °F
N
13
Wind Variable Wind from ESE
Sunrise 6:59 AM
Sunset 6:25 PM
Moon Waning Gibbous

Today is forecast to be nearly the same temperature as yesterday.

Pressure 30.15 in
Visibility 6.2 miles
Clouds
Dew Point 36 °F
Humidity 20%
Rainfall 0.00 in
Snow Depth Not available.
UV Not available.
Pollen Not available.
Air Quality Not available.
Flu Activity Not available.
METAR YAYE 180300Z AUTO 11011KT 9999 // NCD 27/02 Q1021

More Conditions Fewer Conditions

Pressure 30.15 in
Visibility 6.2 miles
Clouds
Dew Point 36 °F
Humidity 20%
Rainfall 0.00 in
Snow Depth Not available.
UV Not available.
Pollen Not available.
Air Quality Not available.
Flu Activity Not available.
METAR YAYE 180300Z AUTO 11011KT 9999 // NCD 27/02 Q1021

More Conditions Fewer Conditions

10-Day Forecast

Almanac

Astronomy

Apr. 18, 2014 Rise Set
Actual Time 6:59 AM CST 6:25 PM CST
Civil Twilight 6:35 AM CST 6:48 PM CST
Nautical Twilight 6:09 AM CST 7:15 PM CST
Astronomical Twilight 5:42 AM CST 7:41 PM CST
Moon 8:47 PM CST 9:32 AM CST
Length of Visible Light 12h 12m
Length of Day
11h 26m
Tomorrow will be 1m 22s shorter.
Waning Gibbous, 91% of the Moon is Illuminated
Apr 17
Waning Gibbous
Apr 22
Last Quarter
Apr 29
New
May 6
First Quarter
May 14
Full

Yesterday's Extremes

Country Highs Country Lows

Community

  • SUNRISE THROUGH THE TREES.
    SUNRISE THROUGH THE TREES.
  • Dog Wood Blossoms
    Dog Wood Blossoms
  • Morning Light
    Morning Light
  • New Day
    New Day
  • Lake Michigan Sunrise
    Lake Michigan Sunrise

WunderPhotos

Upload Photos

1,702,244 photos uploaded!

WunderBlogs® & News

Nearby

Snow Depth

Not available.

Coastal Water Temperatures

Place Temperature
No Stations Reporting

Earthquake Activity

City Distance Mag. Time & Date
No recent earthquake activity has been reported nearby.
Minimum magnitude displayed is 2.5.

Nearby Weather Stations

There are no personal weather stations in this area.

What do you think?

We're not finished. Please let us know what you like, what you don't like, and what you are still missing.